METAR Data
IDs: Format: Raw Decoded Include TAF

Data at: 0217 UTC 19 Oct 2021

PAJC 190157Z AUTO 26011G15KT 10SM CLR 10/00 A2963 RMK AO2 SLP035 T01000000 PNO $
PAJC 190057Z AUTO 25012KT 10SM CLR 11/01 A2964 RMK AO2 SLP036 T01060011 PNO $
PAJC 182357Z AUTO 24013KT 10SM CLR 10/01 A2964 RMK AO2 SLP038 6//// T01000011 10111 20067 58003 PNO $
PAJC 182257Z AUTO 26007KT 10SM CLR 11/01 A2965 RMK AO2 SLP040 T01110006 PNO $
PAJC 182157Z AUTO 26009KT 10SM CLR 09/01 A2966 RMK AO2 SLP045 T00940006 PNO $
PAJC 182057Z AUTO 24015G20KT 10SM CLR 09/01 A2965 RMK AO2 SLP041 6//// T00890006 51013 PNO $
PAJC 181957Z AUTO 25015KT 10SM CLR 08/01 A2963 RMK AO2 SLP035 T00830011 PNO $
PAJC 181857Z AUTO 22016G20KT 10SM FEW031 08/01 A2964 RMK AO2 SLP036 T00780011 PNO $
PAJC 181757Z AUTO 24012G18KT 10SM CLR 07/01 A2961 RMK AO2 SLP028 6//// T00670011 10078 20061 51033 PNO $
PAJC 181657Z AUTO 24009G16KT 10SM CLR 07/01 A2959 RMK AO2 SLP019 T00670011 PNO $
PAJC 181557Z AUTO 23008KT 10SM CLR 07/01 A2954 RMK AO2 SLP004 T00720006 PNO $
PAJC 181457Z AUTO 22009G15KT 10SM BKN110 07/01 A2952 RMK AO2 SLP995 6//// T00720011 51031 PNO $
PAJC 181357Z AUTO 27005KT 10SM CLR 08/00 A2950 RMK AO2 SLP989 T00780000 PNO $
PAJC 181257Z AUTO 30007KT 10SM FEW075 07/01 A2946 RMK AO2 SLP976 T00720011 PNO $
PAJC 181157Z AUTO 29007G16KT 10SM SCT090 BKN110 08/01 A2942 RMK AO2 PK WND 34027/1130 SLP964 6//// 7//// T00780006 10083 20067 53048 PNO $
PAJC 180957Z AUTO 35009KT 10SM OVC080 07/02 A2932 RMK AO2 SLP930 T00720017 PNO $
PAJC 180857Z AUTO VRB03KT 10SM FEW037 OVC070 07/01 A2928 RMK AO2 SLP916 6//// T00720011 53043 PNO $
PAJC 180757Z AUTO 25009KT 10SM OVC080 07/02 A2924 RMK AO2 SLP902 T00720017 400940061 PNO $
PAJC 180624Z AUTO 25008G14KT 10SM BKN030 BKN037 OVC070 07/02 A2917 RMK AO2 PNO $
PAJC 180615Z AUTO 24007KT 10SM BKN029 BKN035 OVC043 07/02 A2916 RMK AO2 PNO $
PAJC 180557Z AUTO 25006KT 10SM SCT029 BKN036 OVC055 07/02 A2915 RMK AO2 RAB19E38 SLP873 6//// T00670022 10078 20061 53033 PNO $
PAJC 180549Z AUTO VRB04KT 10SM SCT027 BKN036 OVC070 06/03 A2915 RMK AO2 RAB19E38 PNO $
PAJC 180512Z AUTO 31007KT 10SM OVC028 07/02 A2912 RMK AO2 PNO $
PAJC 180509Z AUTO 30008KT 10SM SCT025 OVC032 07/02 A2912 RMK AO2 PNO $
PAJC 180505Z AUTO 30007KT 10SM BKN028 OVC034 07/02 A2912 RMK AO2 PNO $
PAJC 180457Z AUTO 30008KT 10SM SCT026 BKN032 OVC045 07/02 A2911 RMK AO2 SLP857 T00670022 PNO $
PAJC 180359Z AUTO 29007KT 10SM FEW024 SCT029 OVC070 07/02 A2906 RMK AO2 PRESRR SLP841 T00670017 PNO $
PAJC 180334Z AUTO VRB03KT 10SM BKN027 BKN034 07/02 A2904 RMK AO2 PNO $
PAJC 180307Z AUTO 27005KT 10SM SCT026 BKN036 07/02 A2901 RMK AO2 PNO $
PAJC 180230Z AUTO 31008KT 10SM BKN024 OVC032 07/03 A2899 RMK AO2 PNO $
PAJC 180157Z AUTO 24013KT 10SM FEW032 SCT050 07/03 A2895 RMK AO2 RAB08E39 SLP804 T00720028 PNO $
PAJC 180133Z AUTO 24017G25KT 10SM -RA SCT027 SCT033 BKN039 07/03 A2894 RMK AO2 RAB08 PNO $
PAJC 180124Z AUTO 25016G24KT 9SM -RA BKN026 BKN033 OVC039 07/03 A2893 RMK AO2 RAB08 PNO $
PAJC 172357Z AUTO 24014KT 10SM FEW046 07/03 A2892 RMK AO2 SLP792 6//// T00720028 10083 20067 53019 PNO $
PAJC 172257Z AUTO 24013KT 10SM FEW022 BKN045 BKN060 08/03 A2890 RMK AO2 RAB15E51 SLP786 T00780028 PNO $
PAJC 172247Z AUTO 24012KT 10SM -RA SCT021 SCT027 BKN043 07/03 A2889 RMK AO2 RAB15 PNO $
PAJC 172241Z AUTO 24015KT 10SM -RA BKN023 BKN041 07/03 A2889 RMK AO2 RAB15 PNO $
PAJC 172157Z AUTO 25011G18KT 10SM FEW027 SCT035 BKN047 08/02 A2888 RMK AO2 SLP778 T00780022 PNO $
PAJC 172057Z AUTO 26009G17KT 10SM FEW027 OVC037 08/02 A2886 RMK AO2 SLP773 6//// T00780017 51014 PNO $
PAJC 171957Z AUTO 25010G16KT 10SM SCT031 BKN038 BKN055 08/02 A2885 RMK AO2 SLP771 T00780017 PNO $
PAJC 171857Z AUTO 25005KT 10SM SCT039 07/01 A2883 RMK AO2 SLP764 T00720011 PNO $
PAJC 171657Z AUTO 23009KT 10SM FEW060 07/01 A2881 RMK AO2 SLP757 T00670011 PNO $
PAJC 171557Z AUTO 27006G15KT 10SM FEW033 07/00 A2880 RMK AO2 SLP754 T00670000 PNO $
PAJC 171457Z AUTO 24003G18KT 10SM SCT028 BKN034 BKN060 07/01 A2880 RMK AO2 SLP752 6//// T00720011 53005 PNO $